sensor_id;sensor_type;location;lat;lon;timestamp;P1;durP1;ratioP1;P2;durP2;ratioP2
36745;SDS011;22715;52.182;21.206;2023-03-01T00:02:02;68.57;;;31.40;;
36745;SDS011;22715;52.182;21.206;2023-03-01T00:04:27;70.25;;;33.58;;
36745;SDS011;22715;52.182;21.206;2023-03-01T00:06:53;71.70;;;33.33;;
36745;SDS011;22715;52.182;21.206;2023-03-01T00:09:19;64.15;;;32.67;;
36745;SDS011;22715;52.182;21.206;2023-03-01T00:11:44;65.28;;;30.88;;
36745;SDS011;22715;52.182;21.206;2023-03-01T00:14:09;84.45;;;33.13;;
36745;SDS011;22715;52.182;21.206;2023-03-01T00:16:36;62.38;;;31.75;;
36745;SDS011;22715;52.182;21.206;2023-03-01T00:19:03;68.65;;;34.30;;
36745;SDS011;22715;52.182;21.206;2023-03-01T00:21:29;86.85;;;38.45;;
36745;SDS011;22715;52.182;21.206;2023-03-01T00:23:54;82.68;;;37.67;;
36745;SDS011;22715;52.182;21.206;2023-03-01T00:26:20;66.75;;;32.22;;
36745;SDS011;22715;52.182;21.206;2023-03-01T00:28:46;80.55;;;36.40;;
36745;SDS011;22715;52.182;21.206;2023-03-01T00:31:13;79.70;;;34.92;;
36745;SDS011;22715;52.182;21.206;2023-03-01T00:33:39;72.28;;;33.92;;
36745;SDS011;22715;52.182;21.206;2023-03-01T00:36:04;80.63;;;35.65;;
36745;SDS011;22715;52.182;21.206;2023-03-01T00:38:30;69.22;;;32.25;;
36745;SDS011;22715;52.182;21.206;2023-03-01T00:40:55;86.68;;;37.20;;
36745;SDS011;22715;52.182;21.206;2023-03-01T00:43:27;84.20;;;37.25;;
36745;SDS011;22715;52.182;21.206;2023-03-01T00:45:52;74.40;;;36.10;;
36745;SDS011;22715;52.182;21.206;2023-03-01T00:48:17;80.35;;;37.63;;
36745;SDS011;22715;52.182;21.206;2023-03-01T00:50:43;84.43;;;38.58;;
36745;SDS011;22715;52.182;21.206;2023-03-01T00:53:08;88.40;;;43.90;;
36745;SDS011;22715;52.182;21.206;2023-03-01T00:55:33;93.28;;;42.72;;
36745;SDS011;22715;52.182;21.206;2023-03-01T00:58:00;79.78;;;39.45;;
36745;SDS011;22715;52.182;21.206;2023-03-01T01:00:26;85.57;;;39.90;;
36745;SDS011;22715;52.182;21.206;2023-03-01T01:02:52;78.63;;;42.53;;
36745;SDS011;22715;52.182;21.206;2023-03-01T01:05:17;92.40;;;39.45;;
36745;SDS011;22715;52.182;21.206;2023-03-01T01:07:45;69.75;;;34.95;;
36745;SDS011;22715;52.182;21.206;2023-03-01T01:10:11;85.43;;;38.28;;
36745;SDS011;22715;52.182;21.206;2023-03-01T01:12:42;90.18;;;39.72;;
36745;SDS011;22715;52.182;21.206;2023-03-01T01:15:08;74.82;;;35.53;;
36745;SDS011;22715;52.182;21.206;2023-03-01T01:17:33;85.55;;;38.50;;
36745;SDS011;22715;52.182;21.206;2023-03-01T01:19:58;72.47;;;36.55;;
36745;SDS011;22715;52.182;21.206;2023-03-01T01:22:23;82.35;;;35.58;;
36745;SDS011;22715;52.182;21.206;2023-03-01T01:24:49;73.90;;;34.72;;
36745;SDS011;22715;52.182;21.206;2023-03-01T01:27:14;64.57;;;37.10;;
36745;SDS011;22715;52.182;21.206;2023-03-01T01:29:39;58.13;;;32.22;;
36745;SDS011;22715;52.182;21.206;2023-03-01T01:32:06;74.72;;;35.03;;
36745;SDS011;22715;52.182;21.206;2023-03-01T01:34:32;68.10;;;32.22;;
36745;SDS011;22715;52.182;21.206;2023-03-01T01:36:57;65.28;;;32.55;;
36745;SDS011;22715;52.182;21.206;2023-03-01T01:39:27;65.13;;;31.38;;
36745;SDS011;22715;52.182;21.206;2023-03-01T01:41:52;84.65;;;37.90;;
36745;SDS011;22715;52.182;21.206;2023-03-01T01:44:25;66.82;;;34.08;;
36745;SDS011;22715;52.182;21.206;2023-03-01T01:47:01;109.20;;;48.58;;
36745;SDS011;22715;52.182;21.206;2023-03-01T01:52:18;111.25;;;51.28;;
36745;SDS011;22715;52.182;21.206;2023-03-01T01:57:37;120.88;;;52.47;;
36745;SDS011;22715;52.182;21.206;2023-03-01T02:00:11;88.28;;;44.38;;
36745;SDS011;22715;52.182;21.206;2023-03-01T02:02:37;89.88;;;40.88;;
36745;SDS011;22715;52.182;21.206;2023-03-01T02:05:06;72.32;;;37.05;;
36745;SDS011;22715;52.182;21.206;2023-03-01T02:07:35;73.20;;;36.17;;
36745;SDS011;22715;52.182;21.206;2023-03-01T02:10:03;65.43;;;32.80;;
36745;SDS011;22715;52.182;21.206;2023-03-01T02:12:28;75.05;;;33.55;;
36745;SDS011;22715;52.182;21.206;2023-03-01T02:14:54;66.20;;;34.40;;
36745;SDS011;22715;52.182;21.206;2023-03-01T02:17:19;82.57;;;40.28;;
36745;SDS011;22715;52.182;21.206;2023-03-01T02:20:06;82.93;;;38.88;;
36745;SDS011;22715;52.182;21.206;2023-03-01T02:22:33;83.90;;;40.47;;
36745;SDS011;22715;52.182;21.206;2023-03-01T02:30:23;92.95;;;45.58;;
36745;SDS011;22715;52.182;21.206;2023-03-01T02:32:51;103.05;;;43.90;;
36745;SDS011;22715;52.182;21.206;2023-03-01T02:35:17;76.00;;;39.75;;
36745;SDS011;22715;52.182;21.206;2023-03-01T02:37:43;82.55;;;40.30;;
36745;SDS011;22715;52.182;21.206;2023-03-01T02:40:10;104.45;;;41.25;;
36745;SDS011;22715;52.182;21.206;2023-03-01T02:42:40;92.30;;;42.45;;
36745;SDS011;22715;52.182;21.206;2023-03-01T02:45:07;95.10;;;44.38;;
36745;SDS011;22715;52.182;21.206;2023-03-01T02:47:32;88.97;;;39.92;;
36745;SDS011;22715;52.182;21.206;2023-03-01T02:50:05;81.28;;;43.13;;
36745;SDS011;22715;52.182;21.206;2023-03-01T02:55:11;87.07;;;39.55;;
36745;SDS011;22715;52.182;21.206;2023-03-01T02:57:38;86.80;;;42.95;;
36745;SDS011;22715;52.182;21.206;2023-03-01T03:00:09;92.10;;;38.83;;
36745;SDS011;22715;52.182;21.206;2023-03-01T03:02:35;93.57;;;40.72;;
36745;SDS011;22715;52.182;21.206;2023-03-01T03:07:56;81.78;;;32.53;;
36745;SDS011;22715;52.182;21.206;2023-03-01T03:10:25;55.75;;;31.17;;
36745;SDS011;22715;52.182;21.206;2023-03-01T03:12:52;70.75;;;35.05;;
36745;SDS011;22715;52.182;21.206;2023-03-01T03:15:17;79.22;;;33.33;;
36745;SDS011;22715;52.182;21.206;2023-03-01T03:17:42;68.20;;;31.38;;
36745;SDS011;22715;52.182;21.206;2023-03-01T03:20:09;60.65;;;29.85;;
36745;SDS011;22715;52.182;21.206;2023-03-01T03:22:39;58.63;;;29.77;;
36745;SDS011;22715;52.182;21.206;2023-03-01T03:25:05;58.30;;;30.25;;
36745;SDS011;22715;52.182;21.206;2023-03-01T03:27:34;59.08;;;28.83;;
36745;SDS011;22715;52.182;21.206;2023-03-01T03:29:59;61.53;;;29.38;;
36745;SDS011;22715;52.182;21.206;2023-03-01T03:32:24;54.67;;;28.35;;
36745;SDS011;22715;52.182;21.206;2023-03-01T03:34:49;50.10;;;27.92;;
36745;SDS011;22715;52.182;21.206;2023-03-01T03:37:15;54.88;;;24.00;;
36745;SDS011;22715;52.182;21.206;2023-03-01T03:39:58;50.65;;;26.80;;
36745;SDS011;22715;52.182;21.206;2023-03-01T03:42:24;56.70;;;29.48;;
36745;SDS011;22715;52.182;21.206;2023-03-01T03:44:49;55.17;;;32.08;;
36745;SDS011;22715;52.182;21.206;2023-03-01T03:47:14;64.03;;;30.38;;
36745;SDS011;22715;52.182;21.206;2023-03-01T03:49:40;52.58;;;29.20;;
36745;SDS011;22715;52.182;21.206;2023-03-01T03:52:05;63.53;;;27.30;;
36745;SDS011;22715;52.182;21.206;2023-03-01T03:54:38;51.22;;;26.92;;
36745;SDS011;22715;52.182;21.206;2023-03-01T03:57:05;58.17;;;27.33;;
36745;SDS011;22715;52.182;21.206;2023-03-01T03:59:30;56.78;;;30.17;;
36745;SDS011;22715;52.182;21.206;2023-03-01T04:01:55;54.15;;;26.73;;
36745;SDS011;22715;52.182;21.206;2023-03-01T04:04:21;63.17;;;29.55;;
36745;SDS011;22715;52.182;21.206;2023-03-01T04:06:46;47.22;;;27.02;;
36745;SDS011;22715;52.182;21.206;2023-03-01T04:09:13;44.28;;;26.33;;
36745;SDS011;22715;52.182;21.206;2023-03-01T04:11:38;54.78;;;27.20;;
36745;SDS011;22715;52.182;21.206;2023-03-01T04:14:04;51.78;;;28.17;;
36745;SDS011;22715;52.182;21.206;2023-03-01T04:16:29;49.97;;;25.73;;
36745;SDS011;22715;52.182;21.206;2023-03-01T04:18:54;36.75;;;22.80;;
36745;SDS011;22715;52.182;21.206;2023-03-01T04:21:20;55.90;;;26.17;;
36745;SDS011;22715;52.182;21.206;2023-03-01T04:23:45;40.25;;;24.27;;
36745;SDS011;22715;52.182;21.206;2023-03-01T04:26:11;49.38;;;24.98;;
36745;SDS011;22715;52.182;21.206;2023-03-01T04:28:40;44.75;;;25.45;;
36745;SDS011;22715;52.182;21.206;2023-03-01T04:31:08;53.38;;;23.30;;
36745;SDS011;22715;52.182;21.206;2023-03-01T04:33:41;48.33;;;26.23;;
36745;SDS011;22715;52.182;21.206;2023-03-01T04:36:07;44.17;;;24.38;;
36745;SDS011;22715;52.182;21.206;2023-03-01T04:38:36;47.45;;;23.33;;
36745;SDS011;22715;52.182;21.206;2023-03-01T04:41:02;38.70;;;22.40;;
36745;SDS011;22715;52.182;21.206;2023-03-01T04:43:28;47.75;;;24.00;;
36745;SDS011;22715;52.182;21.206;2023-03-01T04:45:53;53.55;;;25.17;;
36745;SDS011;22715;52.182;21.206;2023-03-01T04:48:19;43.97;;;24.45;;
36745;SDS011;22715;52.182;21.206;2023-03-01T04:50:44;58.08;;;28.00;;
36745;SDS011;22715;52.182;21.206;2023-03-01T04:53:09;51.90;;;25.05;;
36745;SDS011;22715;52.182;21.206;2023-03-01T04:55:34;52.20;;;22.98;;
36745;SDS011;22715;52.182;21.206;2023-03-01T04:58:00;47.05;;;23.75;;
36745;SDS011;22715;52.182;21.206;2023-03-01T05:00:25;50.17;;;26.23;;
36745;SDS011;22715;52.182;21.206;2023-03-01T05:02:52;45.47;;;23.13;;
36745;SDS011;22715;52.182;21.206;2023-03-01T05:05:25;47.90;;;23.63;;
36745;SDS011;22715;52.182;21.206;2023-03-01T05:07:54;44.63;;;24.15;;
36745;SDS011;22715;52.182;21.206;2023-03-01T05:10:20;51.15;;;25.40;;
36745;SDS011;22715;52.182;21.206;2023-03-01T05:12:45;45.85;;;25.08;;
36745;SDS011;22715;52.182;21.206;2023-03-01T05:15:11;44.92;;;23.88;;
36745;SDS011;22715;52.182;21.206;2023-03-01T05:17:37;48.63;;;23.63;;
36745;SDS011;22715;52.182;21.206;2023-03-01T05:20:02;49.30;;;25.27;;
36745;SDS011;22715;52.182;21.206;2023-03-01T05:22:32;45.55;;;24.73;;
36745;SDS011;22715;52.182;21.206;2023-03-01T05:24:58;40.90;;;21.05;;
36745;SDS011;22715;52.182;21.206;2023-03-01T05:27:23;46.92;;;25.38;;
36745;SDS011;22715;52.182;21.206;2023-03-01T05:29:48;55.15;;;24.33;;
36745;SDS011;22715;52.182;21.206;2023-03-01T05:32:14;48.30;;;24.13;;
36745;SDS011;22715;52.182;21.206;2023-03-01T05:34:40;49.33;;;25.00;;
36745;SDS011;22715;52.182;21.206;2023-03-01T05:37:06;46.15;;;23.83;;
36745;SDS011;22715;52.182;21.206;2023-03-01T05:39:32;43.67;;;21.35;;
36745;SDS011;22715;52.182;21.206;2023-03-01T05:41:58;46.13;;;22.75;;
36745;SDS011;22715;52.182;21.206;2023-03-01T05:44:24;48.08;;;23.40;;
36745;SDS011;22715;52.182;21.206;2023-03-01T05:46:50;42.22;;;22.15;;
36745;SDS011;22715;52.182;21.206;2023-03-01T05:52:18;49.05;;;23.55;;
36745;SDS011;22715;52.182;21.206;2023-03-01T05:54:44;51.17;;;24.00;;
36745;SDS011;22715;52.182;21.206;2023-03-01T05:57:09;41.70;;;23.48;;
36745;SDS011;22715;52.182;21.206;2023-03-01T05:59:35;44.30;;;22.75;;
36745;SDS011;22715;52.182;21.206;2023-03-01T06:02:00;55.28;;;25.63;;
36745;SDS011;22715;52.182;21.206;2023-03-01T06:04:25;43.30;;;21.23;;
36745;SDS011;22715;52.182;21.206;2023-03-01T06:06:51;46.83;;;24.77;;
36745;SDS011;22715;52.182;21.206;2023-03-01T06:09:16;37.80;;;21.02;;
36745;SDS011;22715;52.182;21.206;2023-03-01T06:11:41;43.05;;;23.83;;
36745;SDS011;22715;52.182;21.206;2023-03-01T06:14:07;51.92;;;23.85;;
36745;SDS011;22715;52.182;21.206;2023-03-01T06:16:32;46.20;;;24.63;;
36745;SDS011;22715;52.182;21.206;2023-03-01T06:18:58;50.33;;;25.52;;
36745;SDS011;22715;52.182;21.206;2023-03-01T06:21:24;41.92;;;24.02;;
36745;SDS011;22715;52.182;21.206;2023-03-01T06:23:49;52.75;;;25.90;;
36745;SDS011;22715;52.182;21.206;2023-03-01T06:26:15;51.95;;;27.15;;
36745;SDS011;22715;52.182;21.206;2023-03-01T06:28:40;55.85;;;25.65;;
36745;SDS011;22715;52.182;21.206;2023-03-01T06:31:05;54.40;;;29.17;;
36745;SDS011;22715;52.182;21.206;2023-03-01T06:33:33;55.50;;;25.77;;
36745;SDS011;22715;52.182;21.206;2023-03-01T06:35:58;45.72;;;26.33;;
36745;SDS011;22715;52.182;21.206;2023-03-01T06:38:24;47.70;;;27.38;;
36745;SDS011;22715;52.182;21.206;2023-03-01T06:40:53;44.53;;;23.90;;
36745;SDS011;22715;52.182;21.206;2023-03-01T06:43:19;37.63;;;21.37;;
36745;SDS011;22715;52.182;21.206;2023-03-01T06:45:44;48.55;;;26.17;;
36745;SDS011;22715;52.182;21.206;2023-03-01T06:48:10;50.78;;;26.88;;
36745;SDS011;22715;52.182;21.206;2023-03-01T06:50:35;51.40;;;26.45;;
36745;SDS011;22715;52.182;21.206;2023-03-01T06:53:01;50.90;;;26.13;;
36745;SDS011;22715;52.182;21.206;2023-03-01T06:55:26;42.70;;;24.27;;
36745;SDS011;22715;52.182;21.206;2023-03-01T06:57:58;53.83;;;29.17;;
36745;SDS011;22715;52.182;21.206;2023-03-01T07:00:24;51.28;;;29.98;;
36745;SDS011;22715;52.182;21.206;2023-03-01T07:02:50;45.40;;;25.55;;
36745;SDS011;22715;52.182;21.206;2023-03-01T07:05:15;46.30;;;25.38;;
36745;SDS011;22715;52.182;21.206;2023-03-01T07:07:40;51.95;;;25.13;;
36745;SDS011;22715;52.182;21.206;2023-03-01T07:10:06;39.33;;;23.48;;
36745;SDS011;22715;52.182;21.206;2023-03-01T07:12:31;44.85;;;24.10;;
36745;SDS011;22715;52.182;21.206;2023-03-01T07:14:57;43.67;;;25.15;;
36745;SDS011;22715;52.182;21.206;2023-03-01T07:17:22;49.20;;;26.33;;
36745;SDS011;22715;52.182;21.206;2023-03-01T07:19:47;41.50;;;22.50;;
36745;SDS011;22715;52.182;21.206;2023-03-01T07:22:12;51.03;;;26.55;;
36745;SDS011;22715;52.182;21.206;2023-03-01T07:24:38;44.28;;;22.77;;
36745;SDS011;22715;52.182;21.206;2023-03-01T07:27:03;41.90;;;22.10;;
36745;SDS011;22715;52.182;21.206;2023-03-01T07:29:31;40.83;;;21.63;;
36745;SDS011;22715;52.182;21.206;2023-03-01T07:32:01;43.03;;;23.00;;
36745;SDS011;22715;52.182;21.206;2023-03-01T07:34:26;38.80;;;23.00;;
36745;SDS011;22715;52.182;21.206;2023-03-01T07:36:52;41.22;;;23.20;;
36745;SDS011;22715;52.182;21.206;2023-03-01T07:39:17;40.10;;;22.27;;
36745;SDS011;22715;52.182;21.206;2023-03-01T07:41:42;33.47;;;21.00;;
36745;SDS011;22715;52.182;21.206;2023-03-01T07:44:08;38.92;;;20.70;;
36745;SDS011;22715;52.182;21.206;2023-03-01T07:46:34;36.15;;;22.27;;
36745;SDS011;22715;52.182;21.206;2023-03-01T07:48:59;42.45;;;20.10;;
36745;SDS011;22715;52.182;21.206;2023-03-01T07:51:24;35.75;;;17.67;;
36745;SDS011;22715;52.182;21.206;2023-03-01T07:53:50;31.90;;;20.40;;
36745;SDS011;22715;52.182;21.206;2023-03-01T07:56:17;39.42;;;21.02;;
36745;SDS011;22715;52.182;21.206;2023-03-01T07:58:43;27.48;;;18.63;;
36745;SDS011;22715;52.182;21.206;2023-03-01T08:01:10;29.15;;;15.13;;
36745;SDS011;22715;52.182;21.206;2023-03-01T08:03:36;39.60;;;18.83;;
36745;SDS011;22715;52.182;21.206;2023-03-01T08:06:02;31.67;;;17.40;;
36745;SDS011;22715;52.182;21.206;2023-03-01T08:08:27;31.23;;;19.20;;
36745;SDS011;22715;52.182;21.206;2023-03-01T08:10:52;30.52;;;17.52;;
36745;SDS011;22715;52.182;21.206;2023-03-01T08:13:20;30.63;;;17.25;;
36745;SDS011;22715;52.182;21.206;2023-03-01T08:15:47;35.10;;;18.00;;
36745;SDS011;22715;52.182;21.206;2023-03-01T08:18:13;30.77;;;16.83;;
36745;SDS011;22715;52.182;21.206;2023-03-01T08:20:38;33.28;;;17.05;;
36745;SDS011;22715;52.182;21.206;2023-03-01T08:23:03;26.45;;;15.50;;
36745;SDS011;22715;52.182;21.206;2023-03-01T08:25:28;30.65;;;16.95;;
36745;SDS011;22715;52.182;21.206;2023-03-01T08:27:53;34.97;;;18.33;;
36745;SDS011;22715;52.182;21.206;2023-03-01T08:30:19;22.57;;;13.47;;
36745;SDS011;22715;52.182;21.206;2023-03-01T08:32:45;26.15;;;14.45;;
36745;SDS011;22715;52.182;21.206;2023-03-01T08:35:10;23.33;;;13.82;;
36745;SDS011;22715;52.182;21.206;2023-03-01T08:37:35;29.75;;;15.38;;
36745;SDS011;22715;52.182;21.206;2023-03-01T08:40:01;26.60;;;11.90;;
36745;SDS011;22715;52.182;21.206;2023-03-01T08:42:27;30.45;;;16.05;;
36745;SDS011;22715;52.182;21.206;2023-03-01T08:44:52;52.78;;;25.85;;
36745;SDS011;22715;52.182;21.206;2023-03-01T08:47:17;33.13;;;17.73;;
36745;SDS011;22715;52.182;21.206;2023-03-01T08:49:43;56.15;;;33.97;;
36745;SDS011;22715;52.182;21.206;2023-03-01T08:52:08;31.10;;;17.60;;
36745;SDS011;22715;52.182;21.206;2023-03-01T08:54:33;19.92;;;12.32;;
36745;SDS011;22715;52.182;21.206;2023-03-01T08:57:00;27.45;;;16.23;;
36745;SDS011;22715;52.182;21.206;2023-03-01T08:59:26;21.08;;;13.30;;
36745;SDS011;22715;52.182;21.206;2023-03-01T09:01:51;35.63;;;20.20;;
36745;SDS011;22715;52.182;21.206;2023-03-01T09:04:17;32.40;;;16.42;;
36745;SDS011;22715;52.182;21.206;2023-03-01T09:06:42;30.17;;;16.15;;
36745;SDS011;22715;52.182;21.206;2023-03-01T09:09:12;24.00;;;14.70;;
36745;SDS011;22715;52.182;21.206;2023-03-01T09:11:39;28.08;;;15.73;;
36745;SDS011;22715;52.182;21.206;2023-03-01T09:14:05;22.20;;;14.00;;
36745;SDS011;22715;52.182;21.206;2023-03-01T09:16:30;28.63;;;13.85;;
36745;SDS011;22715;52.182;21.206;2023-03-01T09:19:00;19.25;;;12.75;;
36745;SDS011;22715;52.182;21.206;2023-03-01T09:21:26;27.60;;;15.85;;
36745;SDS011;22715;52.182;21.206;2023-03-01T09:23:51;23.30;;;14.33;;
36745;SDS011;22715;52.182;21.206;2023-03-01T09:26:17;28.25;;;13.98;;
36745;SDS011;22715;52.182;21.206;2023-03-01T09:28:44;41.30;;;16.20;;
36745;SDS011;22715;52.182;21.206;2023-03-01T09:31:09;19.73;;;11.57;;
36745;SDS011;22715;52.182;21.206;2023-03-01T09:33:37;25.90;;;13.88;;
36745;SDS011;22715;52.182;21.206;2023-03-01T09:36:04;17.35;;;11.80;;
36745;SDS011;22715;52.182;21.206;2023-03-01T09:38:30;22.13;;;12.95;;
36745;SDS011;22715;52.182;21.206;2023-03-01T09:40:55;21.50;;;11.45;;
36745;SDS011;22715;52.182;21.206;2023-03-01T09:43:23;24.17;;;12.73;;
36745;SDS011;22715;52.182;21.206;2023-03-01T09:45:52;19.75;;;10.38;;
36745;SDS011;22715;52.182;21.206;2023-03-01T09:48:19;15.60;;;10.07;;
36745;SDS011;22715;52.182;21.206;2023-03-01T09:50:48;18.55;;;11.23;;
36745;SDS011;22715;52.182;21.206;2023-03-01T09:53:18;20.67;;;10.80;;
36745;SDS011;22715;52.182;21.206;2023-03-01T09:56:00;23.33;;;13.20;;
36745;SDS011;22715;52.182;21.206;2023-03-01T10:00:52;20.20;;;10.77;;
36745;SDS011;22715;52.182;21.206;2023-03-01T10:03:32;20.55;;;11.80;;
36745;SDS011;22715;52.182;21.206;2023-03-01T10:06:01;34.58;;;15.30;;
36745;SDS011;22715;52.182;21.206;2023-03-01T10:08:33;25.02;;;13.27;;
36745;SDS011;22715;52.182;21.206;2023-03-01T10:11:01;24.15;;;13.00;;
36745;SDS011;22715;52.182;21.206;2023-03-01T10:15:56;25.52;;;14.00;;
36745;SDS011;22715;52.182;21.206;2023-03-01T10:23:13;24.80;;;14.43;;
36745;SDS011;22715;52.182;21.206;2023-03-01T10:28:14;32.90;;;15.83;;
36745;SDS011;22715;52.182;21.206;2023-03-01T10:30:41;28.98;;;17.30;;
36745;SDS011;22715;52.182;21.206;2023-03-01T10:33:32;23.27;;;13.90;;
36745;SDS011;22715;52.182;21.206;2023-03-01T10:35:54;29.85;;;16.08;;
36745;SDS011;22715;52.182;21.206;2023-03-01T10:38:19;26.20;;;15.05;;
36745;SDS011;22715;52.182;21.206;2023-03-01T10:43:21;22.13;;;12.30;;
36745;SDS011;22715;52.182;21.206;2023-03-01T10:45:47;22.02;;;13.82;;
36745;SDS011;22715;52.182;21.206;2023-03-01T10:50:44;23.25;;;12.32;;
36745;SDS011;22715;52.182;21.206;2023-03-01T10:53:26;23.70;;;12.30;;
36745;SDS011;22715;52.182;21.206;2023-03-01T10:55:58;19.60;;;9.95;;
36745;SDS011;22715;52.182;21.206;2023-03-01T10:58:23;17.77;;;11.13;;
36745;SDS011;22715;52.182;21.206;2023-03-01T11:00:50;13.05;;;9.20;;
36745;SDS011;22715;52.182;21.206;2023-03-01T11:03:19;16.90;;;11.85;;
36745;SDS011;22715;52.182;21.206;2023-03-01T11:05:50;20.65;;;12.55;;
36745;SDS011;22715;52.182;21.206;2023-03-01T11:08:15;17.63;;;9.57;;
36745;SDS011;22715;52.182;21.206;2023-03-01T11:10:59;23.65;;;11.60;;
36745;SDS011;22715;52.182;21.206;2023-03-01T11:13:28;16.23;;;8.43;;
36745;SDS011;22715;52.182;21.206;2023-03-01T11:16:00;14.82;;;9.07;;
36745;SDS011;22715;52.182;21.206;2023-03-01T11:18:26;15.30;;;10.32;;
36745;SDS011;22715;52.182;21.206;2023-03-01T11:20:53;15.80;;;9.30;;
36745;SDS011;22715;52.182;21.206;2023-03-01T11:23:20;14.73;;;9.30;;
36745;SDS011;22715;52.182;21.206;2023-03-01T11:25:51;14.65;;;8.48;;
36745;SDS011;22715;52.182;21.206;2023-03-01T11:28:18;13.32;;;9.15;;
36745;SDS011;22715;52.182;21.206;2023-03-01T11:30:52;15.77;;;10.00;;
36745;SDS011;22715;52.182;21.206;2023-03-01T11:38:41;18.85;;;8.73;;
36745;SDS011;22715;52.182;21.206;2023-03-01T11:49:40;12.85;;;7.68;;
36745;SDS011;22715;52.182;21.206;2023-03-01T11:56:35;14.25;;;8.15;;
36745;SDS011;22715;52.182;21.206;2023-03-01T11:59:17;15.32;;;9.45;;
36745;SDS011;22715;52.182;21.206;2023-03-01T12:04:14;15.40;;;9.07;;
36745;SDS011;22715;52.182;21.206;2023-03-01T12:09:18;19.25;;;8.93;;
36745;SDS011;22715;52.182;21.206;2023-03-01T12:11:52;15.90;;;9.73;;
36745;SDS011;22715;52.182;21.206;2023-03-01T12:21:58;15.35;;;8.73;;
36745;SDS011;22715;52.182;21.206;2023-03-01T12:29:51;17.85;;;9.45;;
36745;SDS011;22715;52.182;21.206;2023-03-01T12:32:32;13.65;;;7.53;;
36745;SDS011;22715;52.182;21.206;2023-03-01T12:35:02;16.05;;;8.95;;
36745;SDS011;22715;52.182;21.206;2023-03-01T12:45:39;18.88;;;9.90;;
36745;SDS011;22715;52.182;21.206;2023-03-01T12:50:37;16.08;;;8.80;;
36745;SDS011;22715;52.182;21.206;2023-03-01T12:53:04;17.15;;;9.52;;
36745;SDS011;22715;52.182;21.206;2023-03-01T13:03:00;54.50;;;25.10;;
36745;SDS011;22715;52.182;21.206;2023-03-01T13:05:51;29.67;;;14.63;;
36745;SDS011;22715;52.182;21.206;2023-03-01T13:11:00;19.95;;;8.95;;
36745;SDS011;22715;52.182;21.206;2023-03-01T13:13:27;17.13;;;10.48;;
36745;SDS011;22715;52.182;21.206;2023-03-01T13:15:52;13.65;;;7.97;;
36745;SDS011;22715;52.182;21.206;2023-03-01T13:20:48;13.50;;;7.47;;
36745;SDS011;22715;52.182;21.206;2023-03-01T13:31:08;11.20;;;5.72;;
36745;SDS011;22715;52.182;21.206;2023-03-01T13:36:05;19.05;;;11.95;;
36745;SDS011;22715;52.182;21.206;2023-03-01T13:38:47;15.13;;;8.60;;
36745;SDS011;22715;52.182;21.206;2023-03-01T13:41:13;11.23;;;5.53;;
36745;SDS011;22715;52.182;21.206;2023-03-01T13:43:40;8.60;;;5.30;;
36745;SDS011;22715;52.182;21.206;2023-03-01T13:46:11;8.25;;;6.10;;
36745;SDS011;22715;52.182;21.206;2023-03-01T13:48:39;8.95;;;5.28;;
36745;SDS011;22715;52.182;21.206;2023-03-01T13:51:05;11.15;;;4.85;;
36745;SDS011;22715;52.182;21.206;2023-03-01T13:53:33;9.00;;;5.38;;
36745;SDS011;22715;52.182;21.206;2023-03-01T13:56:00;7.72;;;5.00;;
36745;SDS011;22715;52.182;21.206;2023-03-01T13:58:27;9.65;;;5.30;;
36745;SDS011;22715;52.182;21.206;2023-03-01T14:00:57;11.57;;;7.25;;
36745;SDS011;22715;52.182;21.206;2023-03-01T14:03:22;11.50;;;7.90;;
36745;SDS011;22715;52.182;21.206;2023-03-01T14:05:59;10.30;;;7.47;;
36745;SDS011;22715;52.182;21.206;2023-03-01T14:21:12;17.90;;;9.48;;
36745;SDS011;22715;52.182;21.206;2023-03-01T14:23:38;20.38;;;10.35;;
36745;SDS011;22715;52.182;21.206;2023-03-01T14:26:07;28.90;;;18.45;;
36745;SDS011;22715;52.182;21.206;2023-03-01T14:28:35;14.82;;;9.45;;
36745;SDS011;22715;52.182;21.206;2023-03-01T14:31:46;17.50;;;9.95;;
36745;SDS011;22715;52.182;21.206;2023-03-01T14:33:55;16.80;;;8.90;;
36745;SDS011;22715;52.182;21.206;2023-03-01T14:36:25;14.98;;;8.68;;
36745;SDS011;22715;52.182;21.206;2023-03-01T14:38:50;14.65;;;9.55;;
36745;SDS011;22715;52.182;21.206;2023-03-01T14:41:17;14.32;;;8.88;;
36745;SDS011;22715;52.182;21.206;2023-03-01T14:43:47;12.52;;;9.07;;
36745;SDS011;22715;52.182;21.206;2023-03-01T14:46:25;14.57;;;7.55;;
36745;SDS011;22715;52.182;21.206;2023-03-01T14:48:52;14.93;;;9.57;;
36745;SDS011;22715;52.182;21.206;2023-03-01T14:51:18;24.58;;;10.82;;
36745;SDS011;22715;52.182;21.206;2023-03-01T14:53:43;16.27;;;8.93;;
36745;SDS011;22715;52.182;21.206;2023-03-01T14:56:12;15.27;;;8.68;;
36745;SDS011;22715;52.182;21.206;2023-03-01T14:58:38;16.10;;;8.32;;
36745;SDS011;22715;52.182;21.206;2023-03-01T15:01:03;15.80;;;10.27;;
36745;SDS011;22715;52.182;21.206;2023-03-01T15:03:33;13.57;;;7.85;;
36745;SDS011;22715;52.182;21.206;2023-03-01T15:06:02;11.15;;;8.25;;
36745;SDS011;22715;52.182;21.206;2023-03-01T15:08:28;13.43;;;7.43;;
36745;SDS011;22715;52.182;21.206;2023-03-01T15:11:05;18.83;;;10.50;;
36745;SDS011;22715;52.182;21.206;2023-03-01T15:13:34;20.17;;;10.35;;
36745;SDS011;22715;52.182;21.206;2023-03-01T15:16:04;18.02;;;9.05;;
36745;SDS011;22715;52.182;21.206;2023-03-01T15:18:30;14.38;;;9.18;;
36745;SDS011;22715;52.182;21.206;2023-03-01T15:20:56;13.52;;;8.05;;
36745;SDS011;22715;52.182;21.206;2023-03-01T15:23:30;15.15;;;9.02;;
36745;SDS011;22715;52.182;21.206;2023-03-01T15:25:55;15.90;;;10.35;;
36745;SDS011;22715;52.182;21.206;2023-03-01T15:28:22;17.38;;;9.63;;
36745;SDS011;22715;52.182;21.206;2023-03-01T15:31:02;16.23;;;9.10;;
36745;SDS011;22715;52.182;21.206;2023-03-01T15:33:29;39.47;;;20.20;;
36745;SDS011;22715;52.182;21.206;2023-03-01T15:36:00;182.27;;;87.57;;
36745;SDS011;22715;52.182;21.206;2023-03-01T15:38:33;47.03;;;25.02;;
36745;SDS011;22715;52.182;21.206;2023-03-01T15:41:01;32.15;;;19.15;;
36745;SDS011;22715;52.182;21.206;2023-03-01T15:43:44;24.75;;;13.48;;
36745;SDS011;22715;52.182;21.206;2023-03-01T15:46:15;19.20;;;10.82;;
36745;SDS011;22715;52.182;21.206;2023-03-01T15:48:46;36.92;;;22.25;;
36745;SDS011;22715;52.182;21.206;2023-03-01T15:51:47;30.73;;;17.63;;
36745;SDS011;22715;52.182;21.206;2023-03-01T15:54:25;22.70;;;13.00;;
36745;SDS011;22715;52.182;21.206;2023-03-01T15:56:51;31.63;;;16.73;;
36745;SDS011;22715;52.182;21.206;2023-03-01T15:59:17;24.15;;;12.40;;
36745;SDS011;22715;52.182;21.206;2023-03-01T16:01:42;19.55;;;11.80;;
36745;SDS011;22715;52.182;21.206;2023-03-01T16:04:11;63.88;;;34.03;;
36745;SDS011;22715;52.182;21.206;2023-03-01T16:06:52;35.90;;;18.15;;
36745;SDS011;22715;52.182;21.206;2023-03-01T16:09:25;31.95;;;15.27;;
36745;SDS011;22715;52.182;21.206;2023-03-01T16:11:50;19.13;;;10.45;;
36745;SDS011;22715;52.182;21.206;2023-03-01T16:14:16;26.88;;;12.50;;